createdAt,value
2022-11-10T00:01:19.813Z,37.12
2022-11-10T00:04:16.323Z,37.16
2022-11-10T00:07:09.524Z,37.08
2022-11-10T00:10:07.497Z,38.38
2022-11-10T00:13:10.612Z,37.40
2022-11-10T00:16:36.606Z,37.21
2022-11-10T00:19:40.548Z,37.04
2022-11-10T00:22:36.159Z,37.06
2022-11-10T00:25:36.579Z,36.97
2022-11-10T00:28:37.028Z,36.85
2022-11-10T00:31:36.569Z,36.87
2022-11-10T00:34:37.097Z,36.51
2022-11-10T00:37:39.336Z,36.40
2022-11-10T00:40:36.636Z,36.34
2022-11-10T00:43:36.212Z,36.28
2022-11-10T00:46:39.566Z,36.10
2022-11-10T00:49:36.481Z,36.10
2022-11-10T00:52:43.268Z,36.06
2022-11-10T00:55:36.708Z,35.98
2022-11-10T00:58:39.801Z,35.99
2022-11-10T01:01:39.777Z,35.94
2022-11-10T01:04:39.057Z,35.88
2022-11-10T01:07:36.569Z,35.81
2022-11-10T01:10:25.241Z,35.67
2022-11-10T01:13:14.908Z,35.58
2022-11-10T01:16:24.121Z,35.61
2022-11-10T01:19:38.863Z,35.66
2022-11-10T01:22:48.582Z,35.61
2022-11-10T01:25:43.371Z,35.36
2022-11-10T01:28:35.552Z,35.20
2022-11-10T01:31:30.553Z,35.19
2022-11-10T01:34:24.785Z,35.26
2022-11-10T01:37:18.721Z,35.38
2022-11-10T01:40:18.053Z,35.43
2022-11-10T01:43:20.603Z,36.18
2022-11-10T01:46:21.093Z,36.57
2022-11-10T01:49:17.838Z,35.72
2022-11-10T01:52:36.116Z,35.70
2022-11-10T01:55:35.871Z,35.52
2022-11-10T01:58:40.001Z,35.44
2022-11-10T02:01:39.368Z,35.55
2022-11-10T02:04:39.432Z,35.51
2022-11-10T02:07:40.505Z,35.48
2022-11-10T02:10:40.762Z,35.53
2022-11-10T02:13:39.113Z,35.44
2022-11-10T02:16:45.122Z,35.51
2022-11-10T02:19:46.691Z,35.39
2022-11-10T02:22:42.976Z,35.22
2022-11-10T02:25:35.190Z,35.02
2022-11-10T02:28:34.979Z,34.84
2022-11-10T02:31:36.529Z,34.72
2022-11-10T02:34:36.790Z,34.73
2022-11-10T02:37:41.223Z,34.68
2022-11-10T02:40:44.069Z,34.65
2022-11-10T02:43:48.201Z,34.77
2022-11-10T02:46:40.563Z,34.72
2022-11-10T02:49:38.826Z,34.81
2022-11-10T02:52:40.726Z,34.88
2022-11-10T02:55:50.913Z,34.81
2022-11-10T02:58:54.840Z,34.69
2022-11-10T03:01:52.466Z,34.57
2022-11-10T03:04:49.672Z,34.51
2022-11-10T03:07:48.994Z,34.44
2022-11-10T03:10:42.786Z,34.37
2022-11-10T03:14:00.898Z,34.17
2022-11-10T03:17:07.719Z,34.09
2022-11-10T03:20:08.987Z,34.06
2022-11-10T03:23:08.966Z,34.04
2022-11-10T03:26:16.041Z,34.10
2022-11-10T03:29:05.817Z,33.97
2022-11-10T03:32:06.900Z,34.04
2022-11-10T03:35:07.133Z,34.03
2022-11-10T03:38:12.323Z,33.95
2022-11-10T03:41:22.565Z,33.92
2022-11-10T03:44:16.387Z,33.75
2022-11-10T03:47:09.084Z,33.74
2022-11-10T03:50:12.115Z,33.73
2022-11-10T03:53:08.376Z,33.69
2022-11-10T03:56:08.698Z,33.65
2022-11-10T03:59:07.280Z,33.55
2022-11-10T04:02:07.085Z,33.48
2022-11-10T04:05:35.683Z,33.55
2022-11-10T04:09:03.668Z,33.61
2022-11-10T04:12:20.725Z,33.61
2022-11-10T04:15:39.037Z,33.64
2022-11-10T04:18:38.860Z,33.81
2022-11-10T04:21:45.373Z,33.65
2022-11-10T04:24:44.130Z,33.65
2022-11-10T04:27:43.063Z,33.57
2022-11-10T04:30:36.783Z,33.52
2022-11-10T04:34:03.403Z,33.41
2022-11-10T04:37:17.300Z,33.46
2022-11-10T04:40:16.154Z,33.42
2022-11-10T04:43:25.365Z,33.51
2022-11-10T04:46:47.484Z,34.50
2022-11-10T04:49:45.364Z,34.64
2022-11-10T04:53:33.332Z,33.74
2022-11-10T04:56:42.846Z,33.47
2022-11-10T04:59:37.085Z,33.24
2022-11-10T05:02:28.607Z,33.46
2022-11-10T05:05:20.284Z,33.14
2022-11-10T05:08:15.762Z,33.13
2022-11-10T05:11:04.035Z,33.17
2022-11-10T05:13:52.543Z,33.18
2022-11-10T05:16:42.257Z,33.19
2022-11-10T05:19:31.841Z,33.20
2022-11-10T05:22:20.754Z,33.22
2022-11-10T05:25:12.029Z,33.24
2022-11-10T05:28:00.889Z,33.08
2022-11-10T05:30:52.426Z,33.02
2022-11-10T05:33:43.133Z,33.06
2022-11-10T05:36:32.207Z,33.02
2022-11-10T05:39:21.459Z,33.00
2022-11-10T05:42:10.883Z,32.90
2022-11-10T05:45:30.296Z,32.86
2022-11-10T05:48:19.819Z,32.77
2022-11-10T05:51:08.399Z,32.62
2022-11-10T05:54:00.130Z,32.53
2022-11-10T05:56:48.482Z,32.47
2022-11-10T05:59:38.442Z,32.40
2022-11-10T06:02:28.290Z,32.47
2022-11-10T06:05:16.919Z,32.55
2022-11-10T06:08:08.424Z,32.60
2022-11-10T06:10:57.569Z,32.69
2022-11-10T06:13:46.197Z,32.69
2022-11-10T06:16:36.822Z,32.74
2022-11-10T06:19:32.059Z,32.73
2022-11-10T06:22:20.667Z,32.70
2022-11-10T06:25:12.757Z,32.67
2022-11-10T06:28:35.039Z,32.92
2022-11-10T07:21:39.917Z,32.54
2022-11-10T07:55:00.738Z,31.88
2022-11-10T12:27:22.855Z,33.31
2022-11-10T14:16:52.610Z,40.05
2022-11-10T18:09:10.159Z,49.54
2022-11-10T18:46:12.247Z,48.11
2022-11-10T18:49:21.470Z,47.64
2022-11-10T18:52:16.519Z,47.55
2022-11-10T18:55:17.376Z,47.37
2022-11-10T18:58:08.098Z,47.36
2022-11-10T19:01:12.717Z,47.43
2022-11-10T19:04:19.011Z,47.45
2022-11-10T19:07:08.987Z,47.25
2022-11-10T19:10:16.119Z,47.49
2022-11-10T19:13:14.656Z,47.36
2022-11-10T19:16:16.255Z,47.34
2022-11-10T19:24:28.311Z,47.68
2022-11-10T19:27:19.954Z,47.32
2022-11-10T19:30:14.384Z,47.27
2022-11-10T19:33:09.570Z,47.34
2022-11-10T19:36:15.587Z,47.50
2022-11-10T19:39:04.986Z,47.53
2022-11-10T19:42:03.463Z,47.42
2022-11-10T19:44:55.626Z,47.41
2022-11-10T19:48:04.080Z,47.62
2022-11-10T19:50:57.398Z,47.58
2022-11-10T19:53:53.191Z,47.51
2022-11-10T19:56:45.000Z,47.45
2022-11-10T19:59:35.688Z,47.49
2022-11-10T20:02:25.124Z,47.42
2022-11-10T20:05:17.342Z,47.46
2022-11-10T20:08:13.826Z,47.56
2022-11-10T20:11:08.573Z,47.55
2022-11-10T20:14:07.310Z,47.62
2022-11-10T20:17:01.303Z,47.50
2022-11-10T20:19:59.995Z,47.62
2022-11-10T20:22:49.197Z,47.53
2022-11-10T20:25:41.401Z,47.55
2022-11-10T20:28:39.585Z,47.66
2022-11-10T20:36:36.504Z,48.07
2022-11-10T20:39:57.848Z,47.97
2022-11-10T20:43:20.399Z,47.89
2022-11-10T20:46:59.394Z,48.08
2022-11-10T20:50:24.141Z,47.99
2022-11-10T20:53:19.277Z,48.04
2022-11-10T20:56:30.477Z,47.84
2022-11-10T21:00:10.968Z,48.56
2022-11-10T21:03:35.207Z,48.13
2022-11-10T21:06:49.400Z,47.83
2022-11-10T21:09:52.410Z,48.14
2022-11-10T21:12:51.197Z,48.77
2022-11-10T21:16:00.149Z,48.96
2022-11-10T21:19:01.506Z,48.03
2022-11-10T21:35:37.823Z,47.51
2022-11-10T21:38:27.792Z,47.15
2022-11-10T21:41:17.106Z,47.02
2022-11-10T21:44:06.360Z,46.95
2022-11-10T21:47:02.829Z,46.95
2022-11-10T21:49:51.816Z,46.84
2022-11-10T21:52:41.311Z,46.72
2022-11-10T21:55:33.079Z,46.67
2022-11-10T21:58:25.052Z,46.54
2022-11-10T22:01:21.863Z,46.71
2022-11-10T22:04:12.929Z,46.70
2022-11-10T22:07:24.115Z,46.72
2022-11-10T22:10:32.220Z,46.90
2022-11-10T22:13:40.171Z,46.86
2022-11-10T23:12:16.478Z,46.99
2022-11-10T23:15:39.490Z,46.47
2022-11-10T23:21:00.545Z,46.69
2022-11-10T23:35:40.228Z,46.26
